createdAt,value
2023-03-02T06:32:34.436Z,18.67
2023-03-02T06:35:02.996Z,20.10
2023-03-02T06:37:30.678Z,19.70
2023-03-02T06:39:58.844Z,18.63
2023-03-02T06:42:27.544Z,22.48
2023-03-02T06:44:55.161Z,20.15
2023-03-02T06:47:23.551Z,20.23
2023-03-02T06:49:50.979Z,20.13
2023-03-02T06:52:18.260Z,16.65
2023-03-02T06:54:45.621Z,21.77
2023-03-02T06:57:12.887Z,18.48
2023-03-02T06:59:40.141Z,20.40
2023-03-02T07:02:09.753Z,19.25
2023-03-02T07:04:37.654Z,18.55
2023-03-02T07:07:05.649Z,19.35
2023-03-02T07:09:34.730Z,20.08
2023-03-02T07:12:02.921Z,21.00
2023-03-02T07:14:30.747Z,18.75
2023-03-02T07:17:00.311Z,20.55
2023-03-02T07:19:28.080Z,19.65
2023-03-02T07:21:56.681Z,21.13
2023-03-02T07:24:27.661Z,18.63
2023-03-02T07:26:55.034Z,20.33
2023-03-02T07:29:23.082Z,19.88
2023-03-02T07:31:56.919Z,19.98
2023-03-02T07:34:24.999Z,18.67
2023-03-02T07:36:53.755Z,20.10
2023-03-02T07:39:22.335Z,19.42
2023-03-02T07:41:50.619Z,19.83
2023-03-02T07:44:18.146Z,19.05
2023-03-02T07:46:46.881Z,19.40
2023-03-02T07:49:14.337Z,18.48
2023-03-02T07:51:41.842Z,17.95
2023-03-02T07:54:10.348Z,18.67
2023-03-02T07:56:37.967Z,19.95
2023-03-02T07:59:05.698Z,17.27
2023-03-02T08:01:33.434Z,19.30
2023-03-02T08:04:02.224Z,18.15
2023-03-02T08:06:30.246Z,18.80
2023-03-02T08:09:00.430Z,17.58
2023-03-02T08:11:28.135Z,18.77
2023-03-02T08:13:55.775Z,18.38
2023-03-02T08:16:29.750Z,16.33
2023-03-02T08:18:59.658Z,17.77
2023-03-02T08:21:31.871Z,17.73
2023-03-02T08:24:00.034Z,17.48
2023-03-02T08:26:27.475Z,17.00
2023-03-02T08:28:54.762Z,14.65
2023-03-02T08:31:22.566Z,17.67
2023-03-02T08:33:50.849Z,16.77
2023-03-02T08:36:20.654Z,16.52
2023-03-02T08:38:49.393Z,18.50
2023-03-02T08:41:20.284Z,17.58
2023-03-02T08:43:48.496Z,16.88
2023-03-02T08:46:18.924Z,14.93
2023-03-02T08:48:47.417Z,16.38
2023-03-02T08:51:17.886Z,16.92
2023-03-02T08:53:48.471Z,15.27
2023-03-02T08:56:24.425Z,16.10
2023-03-02T08:58:54.565Z,15.82
2023-03-02T09:01:32.032Z,17.77
2023-03-02T09:04:08.595Z,17.73
2023-03-02T09:06:42.823Z,15.35
2023-03-02T09:09:15.023Z,16.35
2023-03-02T09:11:47.486Z,16.33
2023-03-02T09:14:15.972Z,15.90
2023-03-02T09:16:44.220Z,16.25
2023-03-02T09:19:14.679Z,15.68
2023-03-02T09:21:44.620Z,17.20
2023-03-02T09:24:16.925Z,15.73
2023-03-02T09:26:49.103Z,16.60
2023-03-02T09:29:19.249Z,14.48
2023-03-02T09:31:47.847Z,14.90
2023-03-02T09:34:15.762Z,16.60
2023-03-02T09:36:44.613Z,15.88
2023-03-02T09:39:12.967Z,17.23
2023-03-02T09:42:07.415Z,16.13
2023-03-02T09:45:14.271Z,15.38
2023-03-02T09:47:50.624Z,16.10
2023-03-02T09:50:34.630Z,15.68
2023-03-02T09:53:12.536Z,17.42
2023-03-02T09:55:40.651Z,15.75
2023-03-02T09:58:19.040Z,16.27
2023-03-02T10:00:48.072Z,15.35
2023-03-02T10:03:35.965Z,14.57
2023-03-02T10:06:04.025Z,15.38
2023-03-02T10:08:35.362Z,14.05
2023-03-02T10:11:06.180Z,14.95
2023-03-02T10:13:57.123Z,14.70
2023-03-02T10:16:56.026Z,14.60
2023-03-02T10:19:28.889Z,16.27
2023-03-02T10:25:22.983Z,13.95
2023-03-02T10:28:02.718Z,15.65
2023-03-02T10:30:38.750Z,16.75
2023-03-02T10:33:16.981Z,15.68
2023-03-02T10:35:52.742Z,14.68
2023-03-02T10:38:25.379Z,14.35
2023-03-02T10:41:02.463Z,15.90
2023-03-02T10:43:45.255Z,14.50
2023-03-02T10:46:15.253Z,14.63
2023-03-02T10:48:54.532Z,13.82
2023-03-02T10:51:35.654Z,16.17
2023-03-02T10:54:14.346Z,15.50
2023-03-02T10:56:50.442Z,16.42
2023-03-02T10:59:39.098Z,15.15
2023-03-02T11:02:23.564Z,13.55
2023-03-02T11:05:19.890Z,14.57
2023-03-02T11:07:57.866Z,15.73
2023-03-02T11:10:34.288Z,13.00
2023-03-02T11:13:06.245Z,15.10
2023-03-02T11:15:43.761Z,15.05
2023-03-02T11:18:16.178Z,16.60
2023-03-02T11:20:50.364Z,16.02
2023-03-02T11:23:31.662Z,13.45
2023-03-02T11:26:22.063Z,13.73
2023-03-02T11:29:03.146Z,13.57
2023-03-02T11:31:55.989Z,13.90
2023-03-02T11:34:27.645Z,14.68
2023-03-02T11:37:02.752Z,15.30
2023-03-02T11:39:54.608Z,15.30
2023-03-02T11:42:32.836Z,14.82
2023-03-02T11:45:28.268Z,13.68
2023-03-02T11:48:03.734Z,12.75
2023-03-02T11:50:34.227Z,13.95
2023-03-02T11:53:11.864Z,14.52
2023-03-02T11:55:46.906Z,14.00
2023-03-02T11:58:20.994Z,14.75
2023-03-02T12:00:49.582Z,15.65
2023-03-02T12:03:23.387Z,15.20
2023-03-02T12:05:53.699Z,15.07
2023-03-02T12:08:20.813Z,15.98
2023-03-02T12:10:57.232Z,14.10
2023-03-02T12:13:35.518Z,15.27
2023-03-02T12:16:04.185Z,16.58
2023-03-02T12:18:46.553Z,15.40
2023-03-02T12:21:24.580Z,16.47
2023-03-02T12:23:51.968Z,15.45
2023-03-02T12:26:21.899Z,16.63
2023-03-02T12:28:59.045Z,14.90
2023-03-02T12:31:27.621Z,15.90
2023-03-02T12:33:55.249Z,15.20
2023-03-02T12:36:31.997Z,15.60
2023-03-02T12:39:21.265Z,16.02
2023-03-02T12:42:07.734Z,15.18
2023-03-02T12:44:38.625Z,15.35
2023-03-02T12:47:16.261Z,17.70
2023-03-02T12:49:47.295Z,15.52
2023-03-02T12:52:33.892Z,17.13
2023-03-02T12:55:19.411Z,16.15
2023-03-02T12:57:58.953Z,16.83
2023-03-02T13:00:34.545Z,17.88
2023-03-02T13:03:11.179Z,16.73
2023-03-02T13:05:41.349Z,16.10
2023-03-02T13:08:13.611Z,15.82
2023-03-02T13:10:42.452Z,15.60
2023-03-02T13:13:27.268Z,16.58
2023-03-02T13:16:06.455Z,17.27
2023-03-02T13:18:40.009Z,16.85
2023-03-02T13:21:10.695Z,16.42
2023-03-02T13:23:46.431Z,17.05
2023-03-02T13:26:33.501Z,17.83
2023-03-02T13:29:15.922Z,16.40
2023-03-02T13:31:45.995Z,12.75
2023-03-02T13:34:25.413Z,16.15
2023-03-02T13:36:54.200Z,17.15
2023-03-02T13:39:31.811Z,17.63
2023-03-02T13:42:02.130Z,15.45
2023-03-02T13:44:34.537Z,15.23
2023-03-02T13:47:03.518Z,15.20
2023-03-02T13:49:33.273Z,15.88
2023-03-02T13:52:16.504Z,16.73
2023-03-02T13:57:22.473Z,15.63
2023-03-02T13:59:49.758Z,15.70
2023-03-02T14:02:25.795Z,16.58
2023-03-02T14:04:53.792Z,14.93
2023-03-02T14:07:21.237Z,16.23
2023-03-02T14:09:48.962Z,15.88
2023-03-02T14:12:31.421Z,17.45
2023-03-02T14:15:01.097Z,17.45
2023-03-02T14:17:28.562Z,16.95
2023-03-02T14:19:56.555Z,16.48
2023-03-02T14:22:26.423Z,18.55
2023-03-02T14:24:54.351Z,15.80
2023-03-02T14:27:25.829Z,15.80
2023-03-02T14:29:53.877Z,16.50
2023-03-02T14:32:21.628Z,16.45
2023-03-02T14:34:49.212Z,16.85
2023-03-02T14:37:21.939Z,17.30
2023-03-02T14:39:56.855Z,15.50
2023-03-02T14:42:24.389Z,16.27
2023-03-02T14:44:52.521Z,17.98
2023-03-02T14:47:19.818Z,16.23
2023-03-02T14:49:48.748Z,16.95
2023-03-02T14:52:18.702Z,16.08
2023-03-02T14:54:53.937Z,15.65
2023-03-02T14:57:27.316Z,14.88
2023-03-02T14:59:56.173Z,16.27
2023-03-02T15:02:26.913Z,15.02
2023-03-02T15:04:57.147Z,15.48
2023-03-02T15:07:26.952Z,14.77
2023-03-02T15:09:58.302Z,14.57
2023-03-02T15:12:26.453Z,15.43
2023-03-02T15:14:53.823Z,16.35
2023-03-02T15:17:21.021Z,15.95
2023-03-02T15:19:48.777Z,16.60
2023-03-02T15:22:16.851Z,14.68
2023-03-02T15:24:45.009Z,16.00
2023-03-02T15:27:14.115Z,16.05
2023-03-02T15:29:47.222Z,16.63
2023-03-02T15:32:15.362Z,15.88
2023-03-02T15:34:43.651Z,15.85
2023-03-02T15:37:11.866Z,15.40
2023-03-02T15:39:39.268Z,16.73
2023-03-02T15:42:06.761Z,16.88
2023-03-02T15:44:34.151Z,17.52
2023-03-02T15:47:02.046Z,16.38
2023-03-02T15:49:32.009Z,16.08
2023-03-02T15:51:59.360Z,15.93
2023-03-02T15:54:27.459Z,17.00
2023-03-02T15:56:54.823Z,16.77
2023-03-02T15:59:27.934Z,17.33
2023-03-02T16:01:59.759Z,16.35
2023-03-02T16:04:28.682Z,16.10
2023-03-02T16:06:56.832Z,15.88
2023-03-02T16:09:25.443Z,17.60
2023-03-02T16:11:53.191Z,16.50
2023-03-02T16:14:20.968Z,17.42
2023-03-02T16:16:48.607Z,18.17
2023-03-02T16:19:19.240Z,18.17
2023-03-02T16:21:48.292Z,17.75
2023-03-02T16:24:17.349Z,17.08
2023-03-02T16:26:45.734Z,17.95
2023-03-02T16:29:13.959Z,19.25
2023-03-02T16:31:43.001Z,16.85
2023-03-02T16:34:11.790Z,18.10
2023-03-02T16:36:40.758Z,18.40
2023-03-02T16:39:09.295Z,18.00
2023-03-02T16:41:38.185Z,17.75
2023-03-02T16:44:05.742Z,18.58
2023-03-02T16:46:36.651Z,17.52
2023-03-02T16:49:04.862Z,16.92
2023-03-02T16:51:32.310Z,17.08
2023-03-02T16:53:59.637Z,17.67
2023-03-02T16:56:27.098Z,18.92
2023-03-02T16:58:55.551Z,16.73
